Time;durP1;ratioP1;P1;durP2;ratioP2;P2;SDS_P1;SDS_P2;PMS_P1;PMS_P2;Temp;Humidity;BMP_temperature;BMP_pressure;BME280_temperature;BME280_humidity;BME280_pressure;Samples;Min_cycle;Max_cycle;Signal;HPM_P1;HPM_P2
2021/04/06 06:16:45;;;;;;;3.88;0.40;;;20.70;29.10;22.50;93457.00;;;;10556317;27;45277;-72
2021/04/06 06:21:49;;;;;;;1.67;0.40;;;21.00;30.90;24.40;93460.00;;;;10528289;27;47213;-72
2021/04/06 06:26:52;;;;;;;1.10;0.40;;;21.80;29.70;25.60;93449.00;;;;10512229;28;45337;-73
2021/04/06 06:31:58;;;;;;;0.85;0.30;;;22.50;28.50;26.60;93446.00;;;;10511662;28;45602;-73
2021/04/06 06:37:12;;;;;;;1.43;0.37;;;23.20;27.40;27.70;93446.00;;;;10495323;28;48314;-73
2021/04/06 06:42:16;;;;;;;2.10;0.57;;;23.90;26.80;28.40;93457.00;;;;10493987;28;47112;-72
2021/04/06 06:47:26;;;;;;;2.47;0.50;;;24.60;26.10;29.20;93459.00;;;;10480251;28;54808;-73
2021/04/06 06:52:30;;;;;;;1.90;0.47;;;25.20;25.40;29.70;93464.00;;;;10484601;28;48117;-73
2021/04/06 06:57:35;;;;;;;4.60;0.60;;;25.80;24.30;30.30;93446.00;;;;10485316;28;47964;-73
2021/04/06 07:02:37;;;;;;;2.27;0.57;;;26.30;23.90;30.70;93453.00;;;;10483619;28;75351;-73
2021/04/06 07:08:05;;;;;;;2.30;0.57;;;26.80;23.00;31.40;93449.00;;;;10485187;28;46658;-73
2021/04/06 07:13:25;;;;;;;3.25;0.60;;;27.30;22.80;31.60;93439.00;;;;10464829;28;47135;-73
2021/04/06 07:18:27;;;;;;;2.58;0.40;;;27.60;22.20;31.60;93453.00;;;;10484147;28;47521;-73
2021/04/06 07:23:37;;;;;;;3.00;0.47;;;27.80;21.70;32.00;93450.00;;;;10481651;28;45403;-73
2021/04/06 07:28:39;;;;;;;0.88;0.40;;;28.20;21.80;32.00;93467.00;;;;10441833;28;45396;-73
2021/04/06 07:33:40;;;;;;;1.35;0.50;;;28.40;21.30;31.60;93454.00;;;;10457155;28;46846;-72
2021/04/06 07:38:47;;;;;;;1.17;0.47;;;28.20;22.00;31.20;93459.00;;;;10457082;28;45191;-72
2021/04/06 07:43:54;;;;;;;2.50;0.60;;;28.10;21.60;30.80;93456.00;;;;10455118;28;52548;-73
2021/04/06 07:48:55;;;;;;;1.38;0.50;;;27.80;21.40;30.30;93443.00;;;;10456073;28;47446;-72
2021/04/06 07:54:15;;;;;;;2.05;0.55;;;27.50;21.70;29.90;93442.00;;;;10453875;28;75077;-73
2021/04/06 07:59:19;;;;;;;0.98;0.38;;;27.20;21.90;29.30;93453.00;;;;10455478;28;47588;-72
2021/04/06 08:04:45;;;;;;;1.00;0.50;;;26.60;22.40;28.90;93440.00;;;;10454603;28;46944;-73
2021/04/06 08:09:48;;;;;;;2.97;0.60;;;26.10;23.10;28.50;93451.00;;;;10439997;28;45310;-73
2021/04/06 08:15:03;;;;;;;4.20;0.45;;;25.80;23.20;28.40;93455.00;;;;10453974;28;45522;-73
2021/04/06 08:20:20;;;;;;;2.53;0.40;;;25.50;23.60;28.20;93455.00;;;;10454763;28;46942;-73
2021/04/06 08:25:21;;;;;;;2.10;0.50;;;25.40;23.90;28.10;93445.00;;;;10454343;28;46814;-73
2021/04/06 08:30:22;;;;;;;1.88;0.50;;;25.30;24.10;28.10;93458.00;;;;10438946;28;45616;-73
2021/04/06 08:40:56;;;;;;;1.33;0.52;;;25.20;24.20;28.00;93449.00;;;;10431682;28;45341;-73
2021/04/06 08:45:58;;;;;;;1.17;0.50;;;25.10;24.40;28.00;93450.00;;;;10453700;28;45415;-73
2021/04/06 08:50:59;;;;;;;1.17;0.30;;;25.10;24.40;27.90;93438.00;;;;10453450;28;46251;-72
2021/04/06 08:56:13;;;;;;;1.40;0.40;;;25.00;24.40;28.00;93444.00;;;;10452380;28;75148;-73
2021/04/06 09:01:14;;;;;;;1.67;0.50;;;25.00;24.50;27.90;93439.00;;;;10453139;28;46997;-73
2021/04/06 09:06:15;;;;;;;1.00;0.30;;;25.00;24.50;28.00;93442.00;;;;10453070;28;47191;-73
2021/04/06 09:11:20;;;;;;;1.33;0.40;;;25.00;24.40;28.00;93431.00;;;;10451904;28;74425;-73
2021/04/06 09:16:32;;;;;;;2.38;0.60;;;25.00;24.40;28.00;93432.00;;;;10450884;28;45430;-73
2021/04/06 09:21:34;;;;;;;2.70;0.50;;;25.00;24.40;27.90;93436.00;;;;10452749;28;45472;-73
2021/04/06 09:26:37;;;;;;;1.40;0.35;;;25.00;24.30;27.90;93448.00;;;;10452454;28;53376;-73
2021/04/06 09:31:54;;;;;;;2.33;0.40;;;25.00;24.30;27.90;93430.00;;;;10452893;28;47556;-72
2021/04/06 09:37:11;;;;;;;1.20;0.43;;;24.90;24.20;27.90;93449.00;;;;10453019;28;52165;-73
2021/04/06 09:42:13;;;;;;;1.92;0.40;;;24.90;24.20;27.90;93438.00;;;;10452971;28;48229;-73
2021/04/06 09:47:17;;;;;;;1.30;0.43;;;25.00;24.20;27.90;93453.00;;;;10453694;28;45472;-72
2021/04/06 09:52:27;;;;;;;1.88;0.60;;;25.00;24.10;27.90;93455.00;;;;10451657;28;48388;-72
2021/04/06 09:57:38;;;;;;;0.88;0.35;;;24.90;24.10;27.90;93456.00;;;;10451451;28;47029;-72
2021/04/06 10:02:39;;;;;;;0.40;0.20;;;24.90;23.80;27.90;93452.00;;;;10451168;28;46191;-72
2021/04/06 10:07:47;;;;;;;1.08;0.30;;;25.00;23.60;27.90;93463.00;;;;10446698;28;47010;-72
2021/04/06 10:12:50;;;;;;;1.55;0.40;;;25.00;23.60;27.90;93451.00;;;;10401256;28;45532;-72
2021/04/06 10:17:52;;;;;;;1.77;0.30;;;24.90;23.60;27.80;93465.00;;;;10450340;28;45472;-72
2021/04/06 10:22:57;;;;;;;1.45;0.40;;;24.90;23.60;27.80;93463.00;;;;10452261;28;45262;-72
2021/04/06 10:28:01;;;;;;;1.75;0.43;;;24.90;24.30;27.80;93453.00;;;;10464500;28;47245;-72
2021/04/06 10:33:40;;;;;;;1.25;0.30;;;24.90;24.30;28.00;93466.00;;;;10433526;28;46828;-73
2021/04/06 10:38:41;;;;;;;1.58;0.60;;;24.90;23.70;27.80;93448.00;;;;10398768;28;46769;-72
2021/04/06 10:43:49;;;;;;;2.22;0.80;;;24.90;23.90;27.80;93450.00;;;;10434740;28;45270;-73
2021/04/06 10:49:00;;;;;;;2.83;0.93;;;24.90;24.00;27.80;93451.00;;;;10433781;28;47994;-72
2021/04/06 10:54:10;;;;;;;3.90;1.30;;;24.90;24.30;27.80;93463.00;;;;10432341;28;45440;-72
2021/04/06 10:59:15;;;;;;;3.83;1.35;;;24.90;24.60;27.80;93442.00;;;;10432747;28;45699;-72
2021/04/06 11:04:22;;;;;;;6.75;1.50;;;24.90;24.60;27.80;93443.00;;;;10438733;28;45403;-72
2021/04/06 11:09:33;;;;;;;4.45;1.60;;;24.80;24.70;27.80;93434.00;;;;10421143;28;46775;-72
2021/04/06 11:14:36;;;;;;;3.05;1.50;;;24.80;24.60;27.70;93427.00;;;;10452611;28;47151;-72
2021/04/06 11:19:45;;;;;;;5.28;1.60;;;24.80;24.60;27.70;93399.00;;;;10422565;28;47148;-71
2021/04/06 11:24:51;;;;;;;3.90;1.42;;;24.80;25.30;27.70;93414.00;;;;10438138;28;53135;-71
2021/04/06 11:29:54;;;;;;;4.93;1.55;;;24.80;24.60;27.70;93411.00;;;;10437777;28;45740;-71
2021/04/06 11:34:54;;;;;;;4.25;1.38;;;24.80;24.40;27.70;93393.00;;;;10436799;28;46297;-71
2021/04/06 11:39:55;;;;;;;1.95;1.15;;;24.80;24.40;27.60;93400.00;;;;10438730;28;47470;-72
2021/04/06 11:44:56;;;;;;;4.63;1.30;;;24.80;24.30;27.60;93387.00;;;;10419809;28;75218;-72
2021/04/06 11:49:56;;;;;;;4.57;1.60;;;24.80;24.30;27.60;93381.00;;;;10437075;28;75565;-72
2021/04/06 11:54:57;;;;;;;3.40;1.20;;;24.70;24.30;27.60;93387.00;;;;10421465;28;48176;-72
2021/04/06 11:59:58;;;;;;;2.47;0.95;;;24.70;24.30;27.60;93371.00;;;;10435707;28;73445;-72
2021/04/06 12:04:59;;;;;;;3.13;1.08;;;24.70;24.30;27.60;93350.00;;;;10419917;28;47461;-72
2021/04/06 12:10:01;;;;;;;3.03;1.00;;;24.70;24.30;27.70;93362.00;;;;10417472;28;75464;-72
2021/04/06 12:15:02;;;;;;;2.75;1.00;;;24.70;24.30;27.60;93366.00;;;;10451266;28;48324;-72
2021/04/06 12:20:04;;;;;;;2.78;1.05;;;24.70;24.30;27.60;93356.00;;;;10454114;28;47413;-72
2021/04/06 12:25:05;;;;;;;2.53;1.05;;;24.70;24.20;27.60;93350.00;;;;10442618;28;47000;-72
2021/04/06 12:30:07;;;;;;;2.38;1.00;;;24.70;24.20;27.60;93346.00;;;;10450893;28;52106;-72
2021/04/06 12:35:09;;;;;;;2.25;1.10;;;24.70;24.20;27.60;93358.00;;;;10418843;28;47179;-71
2021/04/06 12:40:11;;;;;;;2.65;0.90;;;24.70;24.10;27.60;93341.00;;;;10419307;28;46912;-72
2021/04/06 12:45:15;;;;;;;2.55;1.05;;;24.70;24.00;27.60;93345.00;;;;10433431;28;45486;-72
2021/04/06 12:50:17;;;;;;;3.25;1.23;;;24.70;24.10;27.60;93349.00;;;;10431878;28;47543;-71
2021/04/06 12:55:18;;;;;;;2.28;0.95;;;24.70;24.10;27.60;93361.00;;;;10431748;28;46028;-72
2021/04/06 13:00:20;;;;;;;3.75;0.80;;;24.70;24.10;27.60;93355.00;;;;10409810;28;47600;-72
2021/04/06 13:05:21;;;;;;;2.72;0.80;;;24.60;24.00;27.60;93326.00;;;;10436359;28;46522;-72
2021/04/06 13:10:22;;;;;;;1.98;0.80;;;24.60;24.10;27.60;93313.00;;;;10435203;28;47256;-72
2021/04/06 13:15:23;;;;;;;1.85;0.80;;;24.60;24.10;27.60;93315.00;;;;10434203;28;72440;-71
2021/04/06 13:20:24;;;;;;;2.00;0.70;;;24.70;24.30;27.60;93295.00;;;;10437623;28;45624;-72
2021/04/06 13:25:25;;;;;;;1.75;0.70;;;24.60;24.10;27.60;93296.00;;;;10452154;28;48742;-72
2021/04/06 13:30:28;;;;;;;3.22;0.98;;;24.60;24.20;27.60;93279.00;;;;10452122;28;70534;-72
2021/04/06 13:35:29;;;;;;;2.17;0.90;;;24.60;24.20;27.60;93271.00;;;;10452827;28;48174;-70
2021/04/06 13:40:29;;;;;;;2.85;0.73;;;24.60;24.80;27.60;93273.00;;;;10453225;28;45202;-71
2021/04/06 13:45:31;;;;;;;2.13;0.90;;;24.60;24.20;27.60;93271.00;;;;10434211;28;75524;-71
2021/04/06 13:50:33;;;;;;;3.65;1.20;;;24.60;24.30;27.50;93271.00;;;;10435711;28;45447;-72
2021/04/06 13:55:35;;;;;;;3.67;1.08;;;24.60;24.30;27.60;93293.00;;;;10451070;28;47072;-72
2021/04/06 14:00:45;;;;;;;2.75;1.00;;;24.60;24.40;27.60;93294.00;;;;10451863;28;46537;-71
2021/04/06 14:05:49;;;;;;;3.67;1.15;;;24.60;24.30;27.60;93279.00;;;;10450767;28;47250;-72
2021/04/06 14:10:50;;;;;;;2.42;0.88;;;24.60;24.30;27.50;93267.00;;;;10451426;28;47239;-72
2021/04/06 14:15:51;;;;;;;3.63;0.95;;;24.60;24.30;27.50;93264.00;;;;10432776;28;74440;-72
2021/04/06 14:20:53;;;;;;;2.40;0.80;;;24.60;24.30;27.50;93249.00;;;;10435665;28;45228;-72
2021/04/06 14:25:57;;;;;;;3.10;0.80;;;24.60;24.20;27.50;93253.00;;;;10450732;28;46646;-72
2021/04/06 14:30:58;;;;;;;2.30;0.82;;;24.60;24.20;27.50;93258.00;;;;10450376;28;52829;-72
2021/04/06 14:35:59;;;;;;;2.50;0.75;;;24.60;24.20;27.50;93273.00;;;;10454337;28;45591;-72
2021/04/06 14:40:59;;;;;;;2.40;1.00;;;24.50;24.20;27.50;93272.00;;;;10458369;28;45319;-71
2021/04/06 14:46:04;;;;;;;1.92;0.80;;;24.50;24.20;27.50;93276.00;;;;10457489;28;48311;-72
2021/04/06 14:51:06;;;;;;;1.85;0.70;;;24.50;24.10;27.50;93295.00;;;;10457072;28;48153;-72
2021/04/06 14:56:08;;;;;;;2.58;0.90;;;24.50;24.10;27.40;93291.00;;;;10456868;28;49945;-71
2021/04/06 15:01:09;;;;;;;2.53;0.70;;;24.50;24.10;27.50;93299.00;;;;10455057;28;46142;-76
2021/04/06 15:06:10;;;;;;;1.83;0.65;;;24.50;24.10;27.40;93305.00;;;;10455061;28;47910;-72
2021/04/06 15:11:11;;;;;;;1.75;0.63;;;24.50;24.10;27.40;93274.00;;;;10441420;28;67359;-72
2021/04/06 15:16:12;;;;;;;2.97;0.77;;;24.50;24.10;27.40;93259.00;;;;10456569;28;45493;-72
2021/04/06 15:21:16;;;;;;;2.42;0.70;;;24.50;24.20;27.40;93250.00;;;;10457662;28;46957;-72
2021/04/06 15:26:20;;;;;;;1.83;0.50;;;24.50;24.30;27.40;93251.00;;;;10457273;28;47618;-72
2021/04/06 15:31:21;;;;;;;2.03;0.60;;;24.50;24.30;27.40;93257.00;;;;10457574;28;47358;-72
2021/04/06 15:36:22;;;;;;;3.28;0.85;;;24.50;24.30;27.30;93275.00;;;;10457055;28;46478;-72
2021/04/06 15:41:23;;;;;;;2.53;0.75;;;24.40;24.30;27.30;93272.00;;;;10457058;28;47248;-70
2021/04/06 15:46:24;;;;;;;3.00;0.70;;;24.40;24.30;27.30;93266.00;;;;10456691;28;66259;-71
2021/04/06 15:51:25;;;;;;;4.18;0.70;;;24.30;24.30;27.20;93254.00;;;;10455711;28;73938;-71
2021/04/06 15:56:26;;;;;;;1.65;0.60;;;24.40;24.40;27.30;93256.00;;;;10455394;28;74920;-71
2021/04/06 16:01:27;;;;;;;1.58;0.60;;;24.30;24.40;27.20;93260.00;;;;10457083;28;51015;-71
2021/04/06 16:06:28;;;;;;;1.33;0.50;;;24.30;24.40;27.20;93277.00;;;;10456219;28;47250;-71
2021/04/06 16:11:34;;;;;;;2.15;0.70;;;24.20;24.30;27.20;93274.00;;;;10440317;28;46383;-72
2021/04/06 16:16:34;;;;;;;1.60;0.50;;;24.20;24.30;27.10;93230.00;;;;10455979;28;48079;-71
2021/04/06 16:21:36;;;;;;;1.50;0.50;;;24.20;24.30;27.20;93219.00;;;;10455127;28;65256;-72
2021/04/06 16:26:40;;;;;;;1.52;0.55;;;24.20;24.30;27.20;93227.00;;;;10455477;28;45474;-71
2021/04/06 16:31:41;;;;;;;2.05;0.50;;;24.20;24.30;27.20;93227.00;;;;10455097;28;45347;-71
2021/04/06 16:36:42;;;;;;;1.58;0.70;;;24.30;24.30;27.10;93213.00;;;;10454507;28;74205;-71
2021/04/06 16:41:42;;;;;;;2.72;0.73;;;24.20;24.30;27.10;93228.00;;;;10455435;28;45589;-72
2021/04/06 16:46:43;;;;;;;1.80;0.68;;;24.20;24.30;27.10;93230.00;;;;10471646;28;65749;-73
2021/04/06 16:51:44;;;;;;;2.22;0.85;;;24.20;24.30;27.10;93221.00;;;;10454072;28;74191;-72
2021/04/06 16:56:44;;;;;;;1.23;0.70;;;24.20;24.30;27.10;93226.00;;;;10437850;28;74376;-71
2021/04/06 17:01:46;;;;;;;1.30;0.68;;;24.20;24.30;27.10;93229.00;;;;10453453;28;75503;-71
2021/04/06 17:06:47;;;;;;;1.80;0.93;;;24.10;24.30;27.00;93223.00;;;;10455000;28;45354;-72
2021/04/06 17:11:48;;;;;;;2.22;1.00;;;24.10;24.30;27.00;93240.00;;;;10453996;28;47031;-71
2021/04/06 17:16:48;;;;;;;2.35;0.90;;;24.10;24.30;27.00;93245.00;;;;10454447;28;45471;-72
2021/04/06 17:21:49;;;;;;;2.05;0.90;;;24.10;24.30;27.00;93246.00;;;;10453041;28;75377;-71
2021/04/06 17:26:50;;;;;;;1.80;0.80;;;24.00;24.30;27.00;93239.00;;;;10453196;28;47222;-71
2021/04/06 17:31:51;;;;;;;3.42;1.00;;;24.10;24.40;27.00;93245.00;;;;10453168;28;46600;-71
2021/04/06 17:36:51;;;;;;;1.55;0.90;;;24.10;24.30;27.00;93252.00;;;;10454104;28;45455;-71
2021/04/06 17:41:52;;;;;;;1.88;0.80;;;24.10;24.40;27.00;93254.00;;;;10453018;28;74456;-71
2021/04/06 17:46:53;;;;;;;2.00;0.98;;;24.00;24.30;27.00;93257.00;;;;10452915;28;45355;-72
2021/04/06 17:51:54;;;;;;;2.17;1.00;;;24.10;24.40;26.90;93263.00;;;;10450798;28;74506;-72
2021/04/06 17:56:54;;;;;;;1.67;0.90;;;24.00;24.30;26.90;93268.00;;;;10437409;28;49436;-71
2021/04/06 18:01:55;;;;;;;2.00;1.00;;;24.00;24.40;26.90;93279.00;;;;10451650;28;74394;-71
2021/04/06 18:06:56;;;;;;;1.80;0.90;;;24.00;24.40;26.80;93274.00;;;;10451975;28;75200;-71
2021/04/06 18:11:57;;;;;;;2.15;1.08;;;23.90;24.50;26.80;93273.00;;;;10450243;28;74483;-71
2021/04/06 18:16:58;;;;;;;1.73;1.00;;;23.90;24.50;26.80;93280.00;;;;10452556;28;45746;-72
2021/04/06 18:21:59;;;;;;;2.25;1.05;;;23.90;24.50;26.80;93284.00;;;;10451830;28;48015;-71
2021/04/06 18:26:59;;;;;;;1.77;0.98;;;23.80;24.40;26.80;93285.00;;;;10468665;28;61048;-71
2021/04/06 18:32:02;;;;;;;2.72;1.10;;;23.80;24.50;26.70;93281.00;;;;10451472;28;62898;-71
2021/04/06 18:37:03;;;;;;;2.95;1.15;;;23.80;24.50;26.70;93286.00;;;;10452099;28;47310;-71
